Time;durP1;ratioP1;P1;durP2;ratioP2;P2;SDS_P1;SDS_P2;PMS_P1;PMS_P2;Temp;Humidity;BMP_temperature;BMP_pressure;BME280_temperature;BME280_humidity;BME280_pressure;Samples;Min_cycle;Max_cycle;Signal;HPM_P1;HPM_P2
2021/09/17 00:01:13;;;;;;;;;22.25;21.00;;;;;17.40;72.70;100946.91;5074151;28;45424;-66
2021/09/17 00:03:38;;;;;;;;;26.25;18.25;;;;;17.38;72.91;100947.00;5073131;27;45557;-70
2021/09/17 00:06:04;;;;;;;;;21.50;20.75;;;;;17.37;73.01;100947.94;5089472;27;45529;-65
2021/09/17 00:08:29;;;;;;;;;24.75;22.50;;;;;17.33;73.10;100949.94;5073627;27;45482;-67
2021/09/17 00:10:55;;;;;;;;;26.50;25.00;;;;;17.30;73.09;100944.84;5075158;28;45433;-61
2021/09/17 00:13:21;;;;;;;;;24.25;21.00;;;;;17.30;73.29;100938.66;5074902;27;45472;-68
2021/09/17 00:15:47;;;;;;;;;20.50;20.50;;;;;17.27;73.38;100938.84;5075106;27;45335;-67
2021/09/17 00:18:13;;;;;;;;;25.25;24.25;;;;;17.20;73.64;100930.41;5074506;27;45372;-67
2021/09/17 00:20:38;;;;;;;;;28.75;21.75;;;;;17.21;73.58;100945.41;5074673;28;45348;-64
2021/09/17 00:23:04;;;;;;;;;24.00;23.00;;;;;17.21;73.86;100942.75;5075253;27;45400;-69
2021/09/17 00:25:29;;;;;;;;;31.50;28.50;;;;;17.15;73.77;100933.34;5073990;27;45339;-67
2021/09/17 00:27:54;;;;;;;;;27.25;26.75;;;;;17.15;73.93;100940.47;5074718;27;46577;-68
2021/09/17 00:30:20;;;;;;;;;27.50;25.50;;;;;17.13;74.10;100929.09;5074546;27;45357;-68
2021/09/17 00:32:45;;;;;;;;;32.25;28.75;;;;;17.10;74.20;100929.28;5074406;27;45367;-66
2021/09/17 00:35:12;;;;;;;;;26.75;24.50;;;;;17.10;74.29;100929.28;5073978;27;45526;-63
2021/09/17 00:37:37;;;;;;;;;24.00;22.75;;;;;17.06;74.48;100932.13;5074586;27;45488;-68
2021/09/17 00:40:03;;;;;;;;;27.25;25.00;;;;;17.04;74.60;100931.38;5074457;27;45403;-69
2021/09/17 00:42:29;;;;;;;;;23.25;21.25;;;;;17.03;74.69;100928.78;5074530;28;45487;-65
2021/09/17 00:44:54;;;;;;;;;24.00;21.00;;;;;16.99;74.76;100924.63;5074648;27;45345;-64
2021/09/17 00:47:20;;;;;;;;;21.00;19.75;;;;;17.00;75.04;100924.53;5073138;27;45470;-66
2021/09/17 00:49:46;;;;;;;;;21.50;20.25;;;;;16.97;74.86;100923.81;5074388;27;45480;-66
2021/09/17 00:52:11;;;;;;;;;23.00;20.50;;;;;16.94;75.17;100920.41;5074442;27;45423;-68
2021/09/17 00:54:37;;;;;;;;;24.00;22.50;;;;;16.93;74.91;100915.19;5075145;27;45236;-72
2021/09/17 00:57:03;;;;;;;;;23.25;20.75;;;;;16.91;75.05;100914.41;5076183;27;46724;-70
2021/09/17 00:59:28;;;;;;;;;22.25;20.25;;;;;16.88;75.12;100904.84;5077703;28;46022;-71
2021/09/17 01:01:54;;;;;;;;;23.00;20.75;;;;;16.88;75.37;100906.63;5077875;27;45850;-65
2021/09/17 01:04:22;;;;;;;;;21.50;20.50;;;;;16.85;75.29;100906.81;5078042;27;45467;-61
2021/09/17 01:06:48;;;;;;;;;25.25;21.50;;;;;16.81;75.39;100906.19;5077481;28;45426;-61
2021/09/17 01:09:13;;;;;;;;;26.00;22.75;;;;;16.79;75.36;100897.44;5077850;27;45289;-63
2021/09/17 01:11:39;;;;;;;;;28.25;25.25;;;;;16.81;75.52;100903.53;5077928;27;45320;-61
2021/09/17 01:14:06;;;;;;;;;22.25;20.50;;;;;16.77;75.46;100900.19;5078676;28;45571;-64
2021/09/17 01:16:31;;;;;;;;;18.50;17.25;;;;;16.78;75.68;100901.06;5077740;27;46183;-64
2021/09/17 01:18:57;;;;;;;;;23.25;22.75;;;;;16.76;75.50;100903.78;5077407;27;45253;-62
2021/09/17 01:21:23;;;;;;;;;23.00;20.25;;;;;16.75;75.62;100903.91;5077800;27;45302;-61
2021/09/17 01:23:49;;;;;;;;;22.25;21.00;;;;;16.75;75.65;100906.56;5077993;27;45317;-66
2021/09/17 01:26:15;;;;;;;;;22.25;20.00;;;;;16.67;75.70;100885.75;5077052;28;46056;-62
2021/09/17 01:28:41;;;;;;;;;18.75;17.50;;;;;16.66;75.79;100886.72;5075777;28;45332;-64
2021/09/17 01:31:06;;;;;;;;;25.25;22.50;;;;;16.68;76.09;100886.63;5077700;28;45416;-64
2021/09/17 01:33:32;;;;;;;;;24.50;23.50;;;;;16.65;75.90;100882.34;5077775;27;45574;-64
2021/09/17 01:36:00;;;;;;;;;22.50;22.50;;;;;16.66;75.96;100878.75;5093143;27;46301;-67
2021/09/17 01:38:27;;;;;;;;;25.00;20.00;;;;;16.65;76.08;100879.69;5077807;27;45390;-66
2021/09/17 01:40:53;;;;;;;;;22.50;20.75;;;;;16.61;75.96;100879.03;5077437;27;45397;-66
2021/09/17 01:43:20;;;;;;;;;22.50;21.00;;;;;16.60;76.31;100881.78;5077529;27;45440;-62
2021/09/17 01:45:46;;;;;;;;;21.50;17.75;;;;;16.60;76.27;100881.78;5077250;27;46183;-61
2021/09/17 01:48:11;;;;;;;;;24.00;22.50;;;;;16.54;76.30;100868.88;5075708;27;46172;-65
2021/09/17 01:50:37;;;;;;;;;19.75;17.75;;;;;16.50;76.41;100866.41;5077519;27;45385;-65
2021/09/17 01:53:02;;;;;;;;;21.00;18.25;;;;;16.53;76.46;100868.03;5075693;28;45579;-65
2021/09/17 01:55:27;;;;;;;;;22.50;20.25;;;;;16.52;76.34;100862.78;5076606;27;45751;-65
2021/09/17 01:57:53;;;;;;;;;20.25;19.50;;;;;16.48;76.46;100856.84;5076641;27;45407;-67
2021/09/17 02:00:19;;;;;;;;;21.50;21.50;;;;;16.48;76.69;100856.84;5076805;27;45442;-64
2021/09/17 02:02:45;;;;;;;;;20.25;19.50;;;;;16.39;76.90;100841.44;5092834;27;45581;-69
2021/09/17 02:05:10;;;;;;;;;22.75;21.00;;;;;16.46;77.07;100854.25;5077004;28;45315;-63
2021/09/17 02:07:36;;;;;;;;;22.25;20.25;;;;;16.44;77.07;100848.19;5076008;28;45557;-66
2021/09/17 02:10:01;;;;;;;;;24.50;20.75;;;;;16.45;77.21;100849.91;5076776;27;45328;-70
2021/09/17 02:12:27;;;;;;;;;27.25;23.00;;;;;16.43;77.14;100849.13;5077426;27;45641;-68
2021/09/17 02:14:53;;;;;;;;;22.50;20.50;;;;;16.39;77.66;100838.78;5076561;28;46249;-66
2021/09/17 02:17:18;;;;;;;;;27.00;19.50;;;;;16.41;77.61;100844.84;5076757;27;45848;-72
2021/09/17 02:19:44;;;;;;;;;24.25;22.25;;;;;16.36;77.59;100837.19;5076662;27;45440;-70
2021/09/17 02:22:09;;;;;;;;;22.25;22.25;;;;;16.38;77.59;100831.75;5077198;27;45227;-69
2021/09/17 02:24:34;;;;;;;;;24.75;21.00;;;;;16.35;77.75;100841.63;5076267;27;46057;-62
2021/09/17 02:27:00;;;;;;;;;27.50;26.50;;;;;16.35;77.83;100831.00;5076393;27;45354;-64
2021/09/17 02:29:25;;;;;;;;;25.25;21.00;;;;;16.31;77.93;100829.47;5076502;27;45287;-62
2021/09/17 02:31:51;;;;;;;;;24.25;21.25;;;;;16.32;78.18;100830.34;5076592;27;45629;-62
2021/09/17 02:34:16;;;;;;;;;24.25;22.25;;;;;16.30;78.11;100830.44;5076399;27;46240;-61
2021/09/17 02:36:42;;;;;;;;;26.75;22.50;;;;;16.28;78.23;100828.84;5092190;27;45701;-61
2021/09/17 02:39:07;;;;;;;;;21.75;21.75;;;;;16.27;78.04;100824.47;5076490;27;45800;-65
2021/09/17 02:41:33;;;;;;;;;26.25;23.25;;;;;16.27;78.37;100829.78;5076377;27;45523;-63
2021/09/17 02:43:58;;;;;;;;;21.75;21.25;;;;;16.27;77.94;100833.28;5076091;27;46568;-61
2021/09/17 02:46:24;;;;;;;;;25.00;19.00;;;;;16.28;78.23;100828.84;5076135;27;45494;-63
2021/09/17 02:48:49;;;;;;;;;23.75;22.00;;;;;16.26;77.96;100822.75;5076233;27;45313;-67
2021/09/17 02:51:15;;;;;;;;;23.75;23.00;;;;;16.24;78.02;100809.56;5076247;27;45645;-64
2021/09/17 02:53:40;;;;;;;;;26.50;24.25;;;;;16.25;78.19;100819.25;5076045;28;46497;-70
2021/09/17 02:56:07;;;;;;;;;23.00;23.00;;;;;16.23;78.14;100812.34;5076135;27;45392;-62
2021/09/17 02:58:32;;;;;;;;;23.75;21.00;;;;;16.25;78.22;100816.59;5074598;28;45202;-64
2021/09/17 03:00:57;;;;;;;;;29.00;25.75;;;;;16.22;78.30;100806.16;5076298;27;45232;-60
2021/09/17 03:03:23;;;;;;;;;26.50;24.00;;;;;16.18;77.94;100808.16;5076417;27;46168;-60
2021/09/17 03:05:48;;;;;;;;;24.25;23.00;;;;;16.20;78.12;100811.56;5076462;27;45209;-62
2021/09/17 03:08:14;;;;;;;;;27.00;23.50;;;;;16.19;78.03;100817.81;5076322;27;45261;-60
2021/09/17 03:10:40;;;;;;;;;22.75;20.25;;;;;16.17;77.91;100811.75;5075132;28;45268;-65
2021/09/17 03:13:05;;;;;;;;;24.00;22.50;;;;;16.17;78.02;100810.88;5075811;27;45535;-64
2021/09/17 03:15:31;;;;;;;;;24.50;22.00;;;;;16.11;77.68;100798.84;5091871;27;45417;-64
2021/09/17 03:17:56;;;;;;;;;19.00;17.50;;;;;16.14;78.01;100803.09;5091783;27;45787;-61
2021/09/17 03:20:21;;;;;;;;;21.25;19.00;;;;;16.12;77.95;100797.03;5075754;27;45177;-62
2021/09/17 03:22:48;;;;;;;;;19.25;19.00;;;;;16.12;78.14;100791.72;5075446;27;46024;-64
2021/09/17 03:25:13;;;;;;;;;25.00;22.75;;;;;16.10;78.15;100797.16;5075957;27;45246;-64
2021/09/17 03:27:39;;;;;;;;;25.50;22.50;;;;;16.09;78.20;100792.78;5075807;27;45367;-64
2021/09/17 03:30:05;;;;;;;;;26.25;23.50;;;;;16.09;78.26;100794.56;5075940;27;45517;-67
2021/09/17 03:32:31;;;;;;;;;32.00;29.50;;;;;16.04;78.18;100785.09;5075332;28;47349;-69
2021/09/17 03:34:56;;;;;;;;;27.25;25.25;;;;;16.03;78.45;100786.03;5075384;27;45420;-64
2021/09/17 03:37:22;;;;;;;;;25.25;23.25;;;;;16.02;78.47;100784.31;5075431;27;45297;-62
2021/09/17 03:39:47;;;;;;;;;25.25;24.00;;;;;16.01;78.86;100779.13;5075575;27;45422;-65
2021/09/17 03:42:13;;;;;;;;;24.75;24.25;;;;;16.02;78.73;100778.19;5075814;27;46365;-61
2021/09/17 03:44:38;;;;;;;;;23.75;23.75;;;;;16.00;78.82;100785.38;5075321;27;45265;-62
2021/09/17 03:47:03;;;;;;;;;30.50;25.50;;;;;16.01;79.12;100785.28;5075308;27;45866;-69
2021/09/17 03:49:29;;;;;;;;;26.75;22.00;;;;;16.02;79.14;100786.16;5074454;28;45537;-61
2021/09/17 03:51:56;;;;;;;;;28.50;23.25;;;;;15.99;79.19;100784.50;5075580;27;45421;-65
2021/09/17 03:54:24;;;;;;;;;22.50;18.75;;;;;15.91;79.23;100776.16;5075372;28;45233;-62
2021/09/17 03:56:50;;;;;;;;;27.75;23.00;;;;;15.87;79.13;100767.50;5075303;27;45313;-62
2021/09/17 03:59:15;;;;;;;;;26.00;23.00;;;;;15.97;79.25;100788.22;5075670;27;45600;-63
2021/09/17 04:01:44;;;;;;;;;25.50;25.50;;;;;15.95;79.50;100784.81;5090856;27;47807;-61
2021/09/17 04:04:09;;;;;;;;;23.25;21.25;;;;;15.95;79.25;100790.13;5075167;28;45449;-67
2021/09/17 04:06:35;;;;;;;;;23.50;21.50;;;;;15.91;78.98;100787.63;5073525;28;45321;-61
2021/09/17 04:09:00;;;;;;;;;28.75;25.50;;;;;15.91;79.51;100789.41;5090822;27;45522;-61
2021/09/17 04:11:26;;;;;;;;;28.75;24.75;;;;;15.89;79.36;100786.00;5074902;27;45349;-62
2021/09/17 04:13:51;;;;;;;;;24.00;22.50;;;;;15.89;79.32;100786.84;5075118;27;45350;-63
2021/09/17 04:16:16;;;;;;;;;21.25;19.50;;;;;15.78;79.28;100770.69;5075481;27;45655;-62
2021/09/17 04:18:42;;;;;;;;;22.00;22.00;;;;;15.87;79.16;100786.09;5091057;27;45399;-61
2021/09/17 04:21:07;;;;;;;;;22.25;22.25;;;;;15.83;79.43;100792.47;5074885;27;46129;-61
2021/09/17 04:23:33;;;;;;;;;18.00;17.00;;;;;15.76;79.65;100784.06;5090799;27;45405;-66
2021/09/17 04:25:58;;;;;;;;;24.25;23.50;;;;;15.82;79.71;100785.47;5073666;28;45463;-69
2021/09/17 04:28:24;;;;;;;;;22.50;22.25;;;;;15.79;79.71;100785.66;5090940;27;45357;-63
2021/09/17 04:30:50;;;;;;;;;20.00;20.00;;;;;15.79;79.69;100790.97;5073454;27;47438;-61
2021/09/17 04:33:16;;;;;;;;;24.25;23.75;;;;;15.79;79.90;100790.97;5078643;27;45294;-62
2021/09/17 04:35:42;;;;;;;;;25.00;22.50;;;;;15.77;79.90;100785.75;5078264;27;45374;-63
2021/09/17 04:38:11;;;;;;;;;24.00;22.50;;;;;15.77;79.96;100785.75;5078338;27;45586;-62
2021/09/17 04:40:36;;;;;;;;;24.50;23.00;;;;;15.77;79.88;100783.09;5076386;28;46036;-65
2021/09/17 04:43:02;;;;;;;;;14.50;12.50;;;;;15.73;79.78;100778.94;5078264;27;45463;-62
2021/09/17 04:45:27;;;;;;;;;23.00;20.75;;;;;15.79;79.95;100788.31;5078620;28;45346;-60
2021/09/17 04:47:52;;;;;;;;;24.75;23.50;;;;;15.76;80.25;100784.06;5079423;27;45390;-61
2021/09/17 04:50:18;;;;;;;;;20.75;19.00;;;;;15.76;80.16;100788.50;5080127;27;45388;-62
2021/09/17 04:52:44;;;;;;;;;22.75;19.25;;;;;15.73;79.91;100775.41;5080294;27;45321;-60
2021/09/17 04:55:09;;;;;;;;;23.75;22.75;;;;;15.73;79.99;100786.88;5095110;27;45333;-71
2021/09/17 04:57:36;;;;;;;;;24.00;22.00;;;;;15.73;79.95;100786.00;5094884;27;45337;-66
2021/09/17 05:00:04;;;;;;;;;18.00;18.00;;;;;15.68;80.17;100782.78;5077965;27;46332;-67
2021/09/17 05:02:29;;;;;;;;;28.75;25.50;;;;;15.68;80.12;100788.09;5077772;27;45848;-68
2021/09/17 05:04:54;;;;;;;;;20.75;19.50;;;;;15.65;80.50;100773.22;5077679;27;45555;-68
2021/09/17 05:07:20;;;;;;;;;23.25;21.50;;;;;15.66;80.27;100780.22;5076829;27;45633;-65
2021/09/17 05:09:45;;;;;;;;;24.75;21.50;;;;;15.65;80.44;100783.84;5077797;28;46199;-68
2021/09/17 05:12:10;;;;;;;;;24.75;22.50;;;;;15.63;80.11;100780.41;5077425;27;45197;-66
2021/09/17 05:14:36;;;;;;;;;23.75;20.50;;;;;15.59;80.24;100778.88;5077596;27;45262;-67
2021/09/17 05:17:01;;;;;;;;;25.75;22.25;;;;;15.58;80.65;100783.31;5077814;27;45587;-67
2021/09/17 05:19:27;;;;;;;;;23.00;22.50;;;;;15.58;80.72;100783.31;5077115;27;45386;-66
2021/09/17 05:21:53;;;;;;;;;31.50;23.25;;;;;15.57;80.88;100778.13;5077484;27;45416;-64
2021/09/17 05:24:19;;;;;;;;;23.75;21.25;;;;;15.58;80.80;100777.19;5077933;27;45399;-69
2021/09/17 05:26:45;;;;;;;;;22.75;20.25;;;;;15.56;80.54;100773.75;5077367;27;45541;-70
2021/09/17 05:29:11;;;;;;;;;21.50;20.75;;;;;15.46;81.05;100769.00;5077198;27;45431;-67
2021/09/17 05:31:36;;;;;;;;;26.50;21.50;;;;;15.54;80.79;100771.19;5092936;27;45495;-67
2021/09/17 05:34:02;;;;;;;;;26.50;23.25;;;;;15.53;81.58;100769.47;5077403;27;45261;-63
2021/09/17 05:36:27;;;;;;;;;25.00;23.00;;;;;15.56;80.91;100771.13;5077653;27;45592;-70
2021/09/17 05:38:53;;;;;;;;;26.50;21.25;;;;;15.56;81.18;100771.13;5077299;28;45458;-65
2021/09/17 05:41:18;;;;;;;;;28.25;24.25;;;;;15.57;81.36;100773.66;5077516;27;45219;-66
2021/09/17 05:43:43;;;;;;;;;22.00;19.25;;;;;15.59;81.47;100778.88;5076081;27;45270;-65
2021/09/17 05:46:09;;;;;;;;;26.25;22.50;;;;;15.58;81.18;100772.72;5077376;27;45313;-65
2021/09/17 05:48:34;;;;;;;;;21.25;21.25;;;;;15.58;81.16;100777.19;5076785;27;46524;-67
2021/09/17 05:51:00;;;;;;;;;20.50;19.00;;;;;15.57;80.92;100771.00;5076787;27;45215;-63
2021/09/17 05:53:25;;;;;;;;;22.75;20.50;;;;;15.59;81.04;100773.59;5077158;27;45349;-63
2021/09/17 05:55:50;;;;;;;;;26.00;25.25;;;;;15.61;81.10;100777.00;5077591;27;45568;-65
2021/09/17 05:58:16;;;;;;;;;28.50;26.50;;;;;15.59;81.02;100769.13;5076929;27;45364;-63
2021/09/17 06:00:42;;;;;;;;;30.50;24.75;;;;;15.62;80.88;100770.75;5076702;28;45241;-64
2021/09/17 06:03:07;;;;;;;;;24.25;21.75;;;;;15.61;80.63;100771.69;5076914;27;45323;-62
2021/09/17 06:05:32;;;;;;;;;33.00;27.75;;;;;15.63;80.47;100775.94;5076789;28;45361;-66
2021/09/17 06:07:58;;;;;;;;;31.25;25.25;;;;;15.54;81.14;100765.88;5076794;27;45983;-61
2021/09/17 06:10:23;;;;;;;;;32.75;28.75;;;;;15.69;81.55;100776.53;5076926;28;45871;-62
2021/09/17 06:12:49;;;;;;;;;34.25;29.75;;;;;15.66;80.85;100769.63;5076988;27;45509;-63
2021/09/17 06:15:17;;;;;;;;;31.00;27.25;;;;;15.76;80.94;100778.75;5076926;27;45539;-65
2021/09/17 06:17:44;;;;;;;;;33.00;30.50;;;;;15.78;80.73;100781.28;5076212;27;46163;-61
2021/09/17 06:20:11;;;;;;;;;27.75;24.75;;;;;15.81;81.02;100777.63;5076280;27;45300;-63
2021/09/17 06:22:39;;;;;;;;;34.50;28.75;;;;;15.82;80.80;100769.56;5075714;28;45240;-68
2021/09/17 06:25:05;;;;;;;;;35.25;26.75;;;;;15.85;80.76;100771.19;5077447;27;45557;-65
2021/09/17 06:27:30;;;;;;;;;32.25;30.25;;;;;15.94;80.78;100769.84;5075633;28;47695;-62
2021/09/17 06:29:56;;;;;;;;;35.00;29.75;;;;;15.88;80.38;100755.13;5076527;27;45467;-63
2021/09/17 06:32:21;;;;;;;;;27.25;25.50;;;;;16.00;80.89;100766.81;5076680;27;45393;-63
2021/09/17 06:34:46;;;;;;;;;27.75;27.75;;;;;16.04;80.57;100771.00;5076906;27;45603;-68
2021/09/17 06:37:12;;;;;;;;;27.25;24.75;;;;;16.08;80.58;100761.91;5077303;27;45389;-64
2021/09/17 06:39:37;;;;;;;;;29.75;26.50;;;;;16.10;80.63;100753.81;5076951;27;45363;-63
2021/09/17 06:42:03;;;;;;;;;30.00;26.00;;;;;16.17;79.86;100757.81;5076759;27;45292;-65
2021/09/17 06:44:29;;;;;;;;;26.00;25.00;;;;;16.21;79.62;100764.63;5076748;27;45529;-66
2021/09/17 06:46:55;;;;;;;;;25.25;22.50;;;;;16.23;79.50;100761.91;5075484;28;46841;-64
2021/09/17 06:49:20;;;;;;;;;28.00;24.75;;;;;16.24;79.62;100755.66;5076928;28;45351;-75
2021/09/17 06:51:46;;;;;;;;;25.75;22.00;;;;;16.27;79.50;100766.06;5076661;27;45204;-66
2021/09/17 06:54:11;;;;;;;;;22.75;21.00;;;;;16.32;78.86;100764.00;5076225;27;45219;-74
2021/09/17 06:56:37;;;;;;;;;27.75;25.50;;;;;16.35;79.14;100764.63;5091936;27;46727;-67
2021/09/17 06:59:03;;;;;;;;;37.00;29.50;;;;;16.37;79.07;100759.25;5091412;27;45427;-63
2021/09/17 07:01:28;;;;;;;;;26.75;23.25;;;;;16.41;78.71;100751.94;5074573;28;45284;-63
2021/09/17 07:03:53;;;;;;;;;22.50;21.50;;;;;16.47;78.26;100760.38;5076664;27;45483;-65
2021/09/17 07:06:19;;;;;;;;;27.75;25.00;;;;;16.48;78.17;100751.47;5076001;27;45572;-60
2021/09/17 07:08:44;;;;;;;;;28.75;23.00;;;;;16.57;78.37;100760.69;5076051;27;45240;-63
2021/09/17 07:11:10;;;;;;;;;23.00;22.50;;;;;16.64;78.05;100758.47;5076290;28;45379;-67
2021/09/17 07:13:36;;;;;;;;;30.25;24.75;;;;;16.69;77.80;100751.06;5076158;27;45491;-68
2021/09/17 07:16:01;;;;;;;;;25.75;25.00;;;;;16.69;77.72;100740.44;5075593;27;46538;-65
2021/09/17 07:18:28;;;;;;;;;46.75;39.75;;;;;16.78;77.61;100747.81;5075871;27;45285;-65
2021/09/17 07:20:54;;;;;;;;;26.75;26.75;;;;;16.80;77.42;100745.09;5076250;27;45510;-68
2021/09/17 07:23:20;;;;;;;;;28.50;26.75;;;;;16.84;77.29;100748.38;5076011;27;45413;-69
2021/09/17 07:25:49;;;;;;;;;26.50;24.75;;;;;16.90;77.09;100745.31;5075748;28;46627;-65
2021/09/17 07:28:15;;;;;;;;;23.50;21.00;;;;;16.99;76.45;100750.09;5075554;28;45426;-66
2021/09/17 07:30:40;;;;;;;;;21.25;19.75;;;;;17.04;75.93;100750.66;5075818;28;45276;-64
2021/09/17 07:33:06;;;;;;;;;25.50;24.25;;;;;17.10;76.08;100756.53;5076048;27;45476;-64
2021/09/17 07:35:32;;;;;;;;;20.50;19.75;;;;;17.10;75.90;100748.56;5071836;27;46208;-67
2021/09/17 07:37:58;;;;;;;;;27.00;22.00;;;;;17.19;76.09;100755.94;5081753;27;45383;-66
2021/09/17 07:40:26;;;;;;;;;21.75;20.25;;;;;17.25;75.57;100750.22;5074145;28;45331;-68
2021/09/17 07:42:52;;;;;;;;;24.50;22.25;;;;;17.31;75.15;100748.94;5075653;28;45340;-66
2021/09/17 07:45:21;;;;;;;;;23.00;21.00;;;;;17.37;75.41;100746.72;5074984;27;45391;-64
2021/09/17 07:47:46;;;;;;;;;28.50;22.25;;;;;17.46;74.50;100753.22;5074631;27;45318;-66
2021/09/17 07:50:15;;;;;;;;;17.25;17.25;;;;;17.51;74.09;100758.25;5075466;27;45286;-65
2021/09/17 07:52:41;;;;;;;;;15.25;15.25;;;;;17.53;74.03;100753.69;5075685;27;45635;-64
2021/09/17 07:55:07;;;;;;;;;21.00;19.50;;;;;17.58;74.05;100759.56;5075214;27;45929;-63
2021/09/17 07:57:33;;;;;;;;;19.50;18.25;;;;;17.66;73.47;100761.72;5075054;27;45447;-62
2021/09/17 07:59:58;;;;;;;;;17.75;15.75;;;;;17.76;73.08;100767.25;5075080;27;45398;-64
2021/09/17 08:02:24;;;;;;;;;20.75;19.25;;;;;17.85;73.32;100768.44;5075507;27;45655;-64
2021/09/17 08:04:49;;;;;;;;;18.75;16.25;;;;;17.90;72.80;100764.50;5074973;27;45463;-66
2021/09/17 08:07:15;;;;;;;;;15.50;15.50;;;;;17.98;72.21;100769.31;5077531;27;45333;-62
2021/09/17 08:09:40;;;;;;;;;20.25;17.50;;;;;18.04;71.93;100768.91;5078795;27;45420;-63
2021/09/17 08:12:06;;;;;;;;;15.75;15.00;;;;;18.10;71.88;100765.00;5078826;28;45358;-63
2021/09/17 08:14:32;;;;;;;;;19.00;17.75;;;;;18.17;71.65;100770.72;5078214;28;46813;-64
2021/09/17 08:16:57;;;;;;;;;19.50;18.75;;;;;18.16;71.65;100755.72;5078223;27;45333;-63
2021/09/17 08:19:23;;;;;;;;;23.50;21.50;;;;;18.26;70.82;100762.09;5077044;28;45373;-63
2021/09/17 08:21:48;;;;;;;;;18.50;17.00;;;;;18.36;71.17;100773.81;5093793;27;45486;-62
2021/09/17 08:24:16;;;;;;;;;20.00;18.50;;;;;18.46;70.89;100765.16;5065648;28;46636;-64
2021/09/17 08:26:43;;;;;;;;;19.50;17.50;;;;;18.53;71.02;100771.75;5057496;28;45377;-63
2021/09/17 08:29:09;;;;;;;;;22.00;20.00;;;;;18.62;70.23;100771.13;5073305;27;45438;-63
2021/09/17 08:31:35;;;;;;;;;25.25;22.25;;;;;18.71;70.24;100763.44;5058093;28;45429;-65
2021/09/17 08:34:00;;;;;;;;;20.75;19.50;;;;;18.79;69.86;100769.91;5057911;28;45490;-64
2021/09/17 08:36:26;;;;;;;;;22.50;19.75;;;;;18.86;70.29;100770.31;5057858;28;45468;-66
2021/09/17 08:38:51;;;;;;;;;24.50;21.50;;;;;18.94;70.04;100759.09;5055905;28;45447;-64
2021/09/17 08:41:16;;;;;;;;;19.00;18.50;;;;;19.06;69.11;100766.22;5058444;28;45509;-66
2021/09/17 08:43:45;;;;;;;;;20.25;19.50;;;;;19.15;69.24;100763.88;5073314;27;46921;-64
2021/09/17 08:46:14;;;;;;;;;25.25;23.50;;;;;19.24;68.91;100757.84;5058007;28;45768;-65
2021/09/17 08:48:41;;;;;;;;;19.25;18.50;;;;;19.34;68.59;100760.66;5056827;28;45428;-64
2021/09/17 08:51:06;;;;;;;;;21.25;20.75;;;;;19.40;68.23;100761.06;5058005;28;45406;-65
2021/09/17 08:53:32;;;;;;;;;20.00;16.50;;;;;19.49;67.92;100756.03;5056428;28;45445;-65
2021/09/17 08:55:58;;;;;;;;;18.50;17.00;;;;;19.52;67.52;100751.28;5057896;28;45358;-64
2021/09/17 08:58:23;;;;;;;;;23.50;18.25;;;;;19.65;67.27;100763.72;5057604;28;45306;-66
2021/09/17 09:00:49;;;;;;;;;16.75;15.75;;;;;19.73;67.09;100755.13;5058339;28;45552;-66
2021/09/17 09:03:33;;;;;;;;;21.50;17.75;;;;;19.84;65.88;100763.16;5056271;28;47975;-65
2021/09/17 09:06:13;;;;;;;;;19.00;16.75;;;;;19.93;66.05;100754.47;5058161;27;45296;-64
2021/09/17 09:08:40;;;;;;;;;18.50;17.50;;;;;20.04;65.63;100755.44;5057548;28;45319;-64
2021/09/17 09:11:18;;;;;;;;;18.00;15.00;;;;;20.15;65.63;100763.50;5057861;28;45631;-64
2021/09/17 09:14:05;;;;;;;;;19.50;18.00;;;;;20.24;64.74;100753.91;5057181;28;45326;-64
2021/09/17 09:16:33;;;;;;;;;19.00;19.00;;;;;20.25;64.69;100745.78;5057585;28;45384;-65
2021/09/17 09:19:34;;;;;;;;;18.50;18.50;;;;;20.38;64.30;100742.97;5073253;28;45394;-65
2021/09/17 09:22:02;;;;;;;;;20.50;18.75;;;;;20.54;64.37;100747.97;5058025;27;45622;-65
2021/09/17 09:24:28;;;;;;;;;20.50;18.75;;;;;20.64;63.05;100749.91;5057742;28;46279;-65
2021/09/17 09:27:10;;;;;;;;;39.00;34.50;;;;;20.73;63.66;100750.00;5057375;28;45351;-66
2021/09/17 09:29:36;;;;;;;;;20.25;16.75;;;;;20.84;63.20;100745.66;5056027;28;45303;-69
2021/09/17 09:32:02;;;;;;;;;18.75;17.25;;;;;20.91;63.36;100743.31;5057781;27;45228;-68
2021/09/17 09:34:54;;;;;;;;;20.75;18.50;;;;;20.99;62.90;100735.50;5057088;28;45770;-66
2021/09/17 09:37:26;;;;;;;;;17.25;14.00;;;;;21.04;62.32;100738.66;5057255;28;45220;-68
2021/09/17 09:40:02;;;;;;;;;21.25;16.00;;;;;21.16;62.35;100740.31;5055040;28;45502;-66
2021/09/17 09:42:32;;;;;;;;;12.75;10.75;;;;;21.26;61.77;100742.25;5057105;27;45451;-65
2021/09/17 09:45:10;;;;;;;;;13.25;12.50;;;;;21.37;61.41;100744.03;5056467;28;45520;-67
2021/09/17 09:47:38;;;;;;;;;12.25;11.00;;;;;21.45;61.20;100733.53;5071765;28;45414;-65
2021/09/17 09:50:07;;;;;;;;;10.00;10.00;;;;;21.57;60.63;100745.03;5055876;28;45344;-64
2021/09/17 09:52:33;;;;;;;;;12.50;10.50;;;;;21.67;59.87;100734.41;5057313;28;45394;-67
2021/09/17 09:54:59;;;;;;;;;19.75;17.00;;;;;21.70;59.62;100735.00;5057639;28;45905;-68
2021/09/17 09:57:27;;;;;;;;;12.75;12.25;;;;;21.81;58.19;100742.13;5057667;28;45298;-68
2021/09/17 09:59:57;;;;;;;;;10.50;8.75;;;;;21.85;58.32;100742.72;5055678;28;45304;-65
2021/09/17 10:02:23;;;;;;;;;20.25;17.75;;;;;21.91;58.31;100731.47;5056888;28;45456;-69
2021/09/17 10:04:49;;;;;;;;;12.75;11.75;;;;;21.98;56.84;100731.81;5056521;27;45338;-64
2021/09/17 10:07:17;;;;;;;;;15.25;13.50;;;;;21.99;57.36;100728.97;5057267;28;45482;-66
2021/09/17 10:09:43;;;;;;;;;11.00;11.00;;;;;22.09;57.53;100738.88;5057455;28;45343;-68
2021/09/17 10:12:11;;;;;;;;;14.75;14.75;;;;;22.12;57.41;100728.78;5055770;28;45389;-65
2021/09/17 10:14:40;;;;;;;;;13.50;12.25;;;;;22.22;57.45;100734.16;5056547;28;45247;-64
2021/09/17 10:17:10;;;;;;;;;14.00;12.50;;;;;22.29;56.39;100732.66;5056358;28;45542;-64
2021/09/17 10:19:37;;;;;;;;;13.00;10.50;;;;;22.28;56.76;100724.75;5056253;28;45438;-66
2021/09/17 10:22:04;;;;;;;;;9.50;9.00;;;;;22.38;57.22;100719.44;5055142;28;45561;-65
2021/09/17 10:24:38;;;;;;;;;13.00;10.50;;;;;22.49;56.73;100722.03;5054849;28;46330;-67
2021/09/17 10:27:23;;;;;;;;;9.50;9.25;;;;;22.58;56.78;100721.22;5056442;28;45307;-65
2021/09/17 10:29:54;;;;;;;;;12.50;9.75;;;;;22.58;55.64;100712.31;5055331;28;45472;-67
2021/09/17 10:32:49;;;;;;;;;15.75;15.25;;;;;22.49;55.45;100718.50;5056008;28;45406;-69
2021/09/17 10:35:18;;;;;;;;;11.75;10.50;;;;;22.57;55.44;100711.47;5055492;28;46489;-66
2021/09/17 10:37:54;;;;;;;;;10.00;10.00;;;;;22.73;54.86;100710.09;5055524;28;45425;-66
2021/09/17 10:41:04;;;;;;;;;9.75;9.25;;;;;22.91;53.83;100712.97;5054081;28;45259;-68
2021/09/17 10:43:33;;;;;;;;;13.00;13.00;;;;;22.93;53.82;100715.50;5052364;28;45597;-66
2021/09/17 10:46:02;;;;;;;;;9.00;8.50;;;;;23.01;53.20;100711.16;5071087;28;47622;-68
2021/09/17 10:48:29;;;;;;;;;10.25;10.25;;;;;23.16;53.43;100711.56;5055614;28;45262;-64
2021/09/17 10:51:03;;;;;;;;;12.00;9.50;;;;;23.14;52.92;100684.03;5055442;28;45498;-68
2021/09/17 10:53:41;;;;;;;;;12.00;9.50;;;;;23.39;53.58;100705.94;5053953;28;45504;-65
2021/09/17 10:56:11;;;;;;;;;11.25;11.25;;;;;23.47;53.56;100698.03;5055420;28;45592;-69
2021/09/17 10:58:41;;;;;;;;;10.00;10.00;;;;;23.52;53.48;100699.44;5054436;28;45748;-66
2021/09/17 11:01:15;;;;;;;;;11.25;9.75;;;;;23.63;52.90;100700.09;5055747;28;45387;-66
2021/09/17 11:03:40;;;;;;;;;11.75;9.50;;;;;23.81;53.06;100704.72;5055843;28;45354;-64
2021/09/17 11:06:22;;;;;;;;;8.25;8.25;;;;;23.93;52.44;100702.72;5071109;28;47279;-64
2021/09/17 11:08:53;;;;;;;;;9.00;8.00;;;;;23.78;50.66;100696.97;5055774;28;45319;-65